Terminal Aerodrome Forecast
Issued by NWS

Home | Current Version | Previous Version | Text Only | Print | Product List | Glossary On
Versions: 1 2 3 4 5 6 7 8 9 10 11 12 13 14 15 16 17 18 19 20 21 22 23 24 25 26 27 28 29 30 31 32 33 34 35 36
000
FTUS44 KFWD 201500 AAA
TAFGKY
TAF AMD
KGKY 201511Z 2015/2112 05004KT P6SM OVC012
      TEMPO 2015/2017 4SM BR OVC007
     FM202000 14006KT P6SM BKN020
     FM210400 14004KT P6SM OVC015
     FM210800 15005KT 4SM BR OVC007=

USA.gov is the U.S. government's official web portal to all federal, state and local government web resources and services.